KELD/ELD METAR and TAF weather

Enter ICAO airport designator
Station Type Date Time Source
KELD METAR 2018/07/16 23:53 UTC NOAA

KELD 162353Z AUTO 06003KT 10SM CLR 31/26 A2996 RMK AO2 SLP143 T03060256 10378 20306 $


Station Type Date Time Source
KELD Decoded METAR 2018/07/16 23:53 UTC NOAA

SOUTH ARKANSAS REGIONAL, AR, United States (KELD) 33-13N 092-49W 81M
Jul 16, 2018 - 07:53 PM EDT / 2018.07.16 2353 UTC
Wind: from the ENE (060 degrees) at 3 MPH (3 KT):0
Visibility: 10 mile(s):0
Sky conditions: clear
Temperature: 87.1 F (30.6 C)
Heat index: 99.9 F (37.7 C):1
Dew Point: 78.1 F (25.6 C)
Relative Humidity: 74%
Pressure (altimeter): 29.96 in. Hg (1014 hPa)
ob: KELD 162353Z AUTO 06003KT 10SM CLR 31/26 A2996 RMK AO2 SLP143 T03060256 10378 20306
cycle: 0

Station Type Date Time Source
KELD TAF 2018/07/16 20:36 UTC NOAA

TAF
AMD KELD 161934Z 1620/1718 20005KT P6SM VCTS SCT060CB
FM170000 VRB04KT P6SM SCT050
FM170600 22005KT P6SM VCTS SCT060CB BKN250


Example: see airport list